sensor_id;sensor_type;location;lat;lon;timestamp;P1;durP1;ratioP1;P2;durP2;ratioP2
58621;SDS011;44389;51.578;5.456;2022-09-02T00:01:28;11.88;;;3.90;;
58621;SDS011;44389;51.578;5.456;2022-09-02T00:03:59;7.63;;;3.95;;
58621;SDS011;44389;51.578;5.456;2022-09-02T00:06:27;10.63;;;3.67;;
58621;SDS011;44389;51.578;5.456;2022-09-02T00:08:54;7.47;;;3.70;;
58621;SDS011;44389;51.578;5.456;2022-09-02T00:11:21;10.40;;;4.38;;
58621;SDS011;44389;51.578;5.456;2022-09-02T00:13:48;6.78;;;3.65;;
58621;SDS011;44389;51.578;5.456;2022-09-02T00:16:15;9.57;;;4.03;;
58621;SDS011;44389;51.578;5.456;2022-09-02T00:18:41;8.63;;;3.97;;
58621;SDS011;44389;51.578;5.456;2022-09-02T00:21:08;8.82;;;3.92;;
58621;SDS011;44389;51.578;5.456;2022-09-02T00:23:36;9.10;;;4.00;;
58621;SDS011;44389;51.578;5.456;2022-09-02T00:26:02;10.70;;;4.22;;
58621;SDS011;44389;51.578;5.456;2022-09-02T00:28:28;10.05;;;4.07;;
58621;SDS011;44389;51.578;5.456;2022-09-02T00:30:53;8.23;;;4.20;;
58621;SDS011;44389;51.578;5.456;2022-09-02T00:33:19;7.93;;;4.13;;
58621;SDS011;44389;51.578;5.456;2022-09-02T00:35:44;13.10;;;4.85;;
58621;SDS011;44389;51.578;5.456;2022-09-02T00:38:10;11.15;;;4.57;;
58621;SDS011;44389;51.578;5.456;2022-09-02T00:40:35;10.15;;;4.32;;
58621;SDS011;44389;51.578;5.456;2022-09-02T00:43:04;12.18;;;4.93;;
58621;SDS011;44389;51.578;5.456;2022-09-02T00:45:31;10.68;;;4.20;;
58621;SDS011;44389;51.578;5.456;2022-09-02T00:47:56;12.35;;;4.47;;
58621;SDS011;44389;51.578;5.456;2022-09-02T00:50:22;8.38;;;4.13;;
58621;SDS011;44389;51.578;5.456;2022-09-02T00:52:54;11.60;;;4.90;;
58621;SDS011;44389;51.578;5.456;2022-09-02T00:55:26;10.45;;;4.10;;
58621;SDS011;44389;51.578;5.456;2022-09-02T00:58:03;13.25;;;4.63;;
58621;SDS011;44389;51.578;5.456;2022-09-02T01:00:34;8.00;;;4.63;;
58621;SDS011;44389;51.578;5.456;2022-09-02T01:03:04;10.65;;;4.32;;
58621;SDS011;44389;51.578;5.456;2022-09-02T01:05:33;10.57;;;4.20;;
58621;SDS011;44389;51.578;5.456;2022-09-02T01:08:01;8.30;;;4.88;;
58621;SDS011;44389;51.578;5.456;2022-09-02T01:10:31;9.15;;;4.30;;
58621;SDS011;44389;51.578;5.456;2022-09-02T01:12:59;9.85;;;5.20;;
58621;SDS011;44389;51.578;5.456;2022-09-02T01:15:32;11.48;;;4.72;;
58621;SDS011;44389;51.578;5.456;2022-09-02T01:18:00;10.30;;;4.97;;
58621;SDS011;44389;51.578;5.456;2022-09-02T01:20:26;8.52;;;4.90;;
58621;SDS011;44389;51.578;5.456;2022-09-02T01:22:52;10.50;;;5.28;;
58621;SDS011;44389;51.578;5.456;2022-09-02T01:25:20;10.85;;;5.05;;
58621;SDS011;44389;51.578;5.456;2022-09-02T01:27:47;11.73;;;5.28;;
58621;SDS011;44389;51.578;5.456;2022-09-02T01:30:17;8.10;;;5.00;;
58621;SDS011;44389;51.578;5.456;2022-09-02T01:32:44;12.55;;;5.30;;
58621;SDS011;44389;51.578;5.456;2022-09-02T01:35:10;9.55;;;5.65;;
58621;SDS011;44389;51.578;5.456;2022-09-02T01:37:36;8.65;;;5.22;;
58621;SDS011;44389;51.578;5.456;2022-09-02T01:40:03;9.05;;;5.50;;
58621;SDS011;44389;51.578;5.456;2022-09-02T01:42:30;10.85;;;5.72;;
58621;SDS011;44389;51.578;5.456;2022-09-02T01:44:55;8.90;;;5.10;;
58621;SDS011;44389;51.578;5.456;2022-09-02T01:47:22;13.68;;;5.75;;
58621;SDS011;44389;51.578;5.456;2022-09-02T01:49:49;13.63;;;5.93;;
58621;SDS011;44389;51.578;5.456;2022-09-02T01:52:16;8.77;;;5.78;;
58621;SDS011;44389;51.578;5.456;2022-09-02T01:54:43;12.40;;;6.33;;
58621;SDS011;44389;51.578;5.456;2022-09-02T01:57:08;10.45;;;5.50;;
58621;SDS011;44389;51.578;5.456;2022-09-02T01:59:35;9.82;;;6.00;;
58621;SDS011;44389;51.578;5.456;2022-09-02T02:02:01;10.15;;;5.88;;
58621;SDS011;44389;51.578;5.456;2022-09-02T02:04:27;13.25;;;6.00;;
58621;SDS011;44389;51.578;5.456;2022-09-02T02:06:53;11.18;;;5.97;;
58621;SDS011;44389;51.578;5.456;2022-09-02T02:09:19;12.00;;;5.80;;
58621;SDS011;44389;51.578;5.456;2022-09-02T02:11:45;10.00;;;5.40;;
58621;SDS011;44389;51.578;5.456;2022-09-02T02:14:11;12.05;;;5.50;;
58621;SDS011;44389;51.578;5.456;2022-09-02T02:16:36;17.75;;;6.47;;
58621;SDS011;44389;51.578;5.456;2022-09-02T02:19:02;12.65;;;6.28;;
58621;SDS011;44389;51.578;5.456;2022-09-02T02:21:28;11.85;;;6.15;;
58621;SDS011;44389;51.578;5.456;2022-09-02T02:23:54;9.90;;;5.60;;
58621;SDS011;44389;51.578;5.456;2022-09-02T02:26:19;15.05;;;6.20;;
58621;SDS011;44389;51.578;5.456;2022-09-02T02:28:45;15.05;;;6.15;;
58621;SDS011;44389;51.578;5.456;2022-09-02T02:31:10;14.80;;;6.15;;
58621;SDS011;44389;51.578;5.456;2022-09-02T02:33:37;11.48;;;6.20;;
58621;SDS011;44389;51.578;5.456;2022-09-02T02:36:03;10.85;;;5.82;;
58621;SDS011;44389;51.578;5.456;2022-09-02T02:38:30;10.68;;;5.85;;
58621;SDS011;44389;51.578;5.456;2022-09-02T02:40:56;12.33;;;6.13;;
58621;SDS011;44389;51.578;5.456;2022-09-02T02:43:22;10.63;;;6.57;;
58621;SDS011;44389;51.578;5.456;2022-09-02T02:45:49;9.03;;;5.80;;
58621;SDS011;44389;51.578;5.456;2022-09-02T02:48:14;13.77;;;5.63;;
58621;SDS011;44389;51.578;5.456;2022-09-02T02:50:40;11.65;;;6.38;;
58621;SDS011;44389;51.578;5.456;2022-09-02T02:53:06;12.52;;;6.30;;
58621;SDS011;44389;51.578;5.456;2022-09-02T02:55:31;8.63;;;5.90;;
58621;SDS011;44389;51.578;5.456;2022-09-02T02:57:57;10.30;;;5.80;;
58621;SDS011;44389;51.578;5.456;2022-09-02T03:00:24;9.43;;;5.78;;
58621;SDS011;44389;51.578;5.456;2022-09-02T03:02:59;10.75;;;6.15;;
58621;SDS011;44389;51.578;5.456;2022-09-02T03:05:26;10.82;;;6.07;;
58621;SDS011;44389;51.578;5.456;2022-09-02T03:07:52;11.98;;;5.65;;
58621;SDS011;44389;51.578;5.456;2022-09-02T03:10:18;9.45;;;5.88;;
58621;SDS011;44389;51.578;5.456;2022-09-02T03:12:44;13.02;;;5.93;;
58621;SDS011;44389;51.578;5.456;2022-09-02T03:15:12;10.15;;;5.57;;
58621;SDS011;44389;51.578;5.456;2022-09-02T03:17:40;11.77;;;5.55;;
58621;SDS011;44389;51.578;5.456;2022-09-02T03:20:07;11.65;;;5.38;;
58621;SDS011;44389;51.578;5.456;2022-09-02T03:22:32;11.82;;;6.22;;
58621;SDS011;44389;51.578;5.456;2022-09-02T03:24:59;10.35;;;6.20;;
58621;SDS011;44389;51.578;5.456;2022-09-02T03:27:25;9.95;;;5.82;;
58621;SDS011;44389;51.578;5.456;2022-09-02T03:29:50;12.43;;;5.97;;
58621;SDS011;44389;51.578;5.456;2022-09-02T03:32:16;13.02;;;5.85;;
58621;SDS011;44389;51.578;5.456;2022-09-02T03:34:41;12.63;;;5.93;;
58621;SDS011;44389;51.578;5.456;2022-09-02T03:37:07;9.77;;;5.93;;
58621;SDS011;44389;51.578;5.456;2022-09-02T03:39:33;9.45;;;5.78;;
58621;SDS011;44389;51.578;5.456;2022-09-02T03:41:59;12.07;;;6.40;;
58621;SDS011;44389;51.578;5.456;2022-09-02T03:44:25;11.50;;;6.13;;
58621;SDS011;44389;51.578;5.456;2022-09-02T03:46:50;15.20;;;6.03;;
58621;SDS011;44389;51.578;5.456;2022-09-02T03:49:15;13.55;;;6.25;;
58621;SDS011;44389;51.578;5.456;2022-09-02T03:51:41;9.15;;;5.50;;
58621;SDS011;44389;51.578;5.456;2022-09-02T03:54:06;9.98;;;5.47;;
58621;SDS011;44389;51.578;5.456;2022-09-02T03:56:32;11.95;;;5.90;;
58621;SDS011;44389;51.578;5.456;2022-09-02T03:58:58;8.55;;;5.32;;
58621;SDS011;44389;51.578;5.456;2022-09-02T04:01:24;11.70;;;6.68;;
58621;SDS011;44389;51.578;5.456;2022-09-02T04:03:50;10.40;;;5.50;;
58621;SDS011;44389;51.578;5.456;2022-09-02T04:06:16;11.90;;;5.72;;
58621;SDS011;44389;51.578;5.456;2022-09-02T04:08:44;13.32;;;6.10;;
58621;SDS011;44389;51.578;5.456;2022-09-02T04:11:12;10.15;;;5.88;;
58621;SDS011;44389;51.578;5.456;2022-09-02T04:13:40;10.95;;;6.05;;
58621;SDS011;44389;51.578;5.456;2022-09-02T04:16:09;9.27;;;6.03;;
58621;SDS011;44389;51.578;5.456;2022-09-02T04:18:37;13.20;;;5.88;;
58621;SDS011;44389;51.578;5.456;2022-09-02T04:21:03;10.95;;;5.32;;
58621;SDS011;44389;51.578;5.456;2022-09-02T04:23:29;15.15;;;5.20;;
58621;SDS011;44389;51.578;5.456;2022-09-02T04:25:54;13.65;;;5.78;;
58621;SDS011;44389;51.578;5.456;2022-09-02T04:28:21;11.70;;;5.15;;
58621;SDS011;44389;51.578;5.456;2022-09-02T04:30:46;15.65;;;5.45;;
58621;SDS011;44389;51.578;5.456;2022-09-02T04:33:12;9.23;;;5.55;;
58621;SDS011;44389;51.578;5.456;2022-09-02T04:35:44;18.27;;;5.45;;
58621;SDS011;44389;51.578;5.456;2022-09-02T04:38:13;12.40;;;5.88;;
58621;SDS011;44389;51.578;5.456;2022-09-02T04:40:42;11.85;;;6.18;;
58621;SDS011;44389;51.578;5.456;2022-09-02T04:43:09;10.55;;;5.53;;
58621;SDS011;44389;51.578;5.456;2022-09-02T04:45:37;12.60;;;5.63;;
58621;SDS011;44389;51.578;5.456;2022-09-02T04:48:04;9.18;;;5.20;;
58621;SDS011;44389;51.578;5.456;2022-09-02T04:50:30;10.18;;;5.63;;
58621;SDS011;44389;51.578;5.456;2022-09-02T04:52:55;11.75;;;5.82;;
58621;SDS011;44389;51.578;5.456;2022-09-02T04:55:20;11.55;;;5.90;;
58621;SDS011;44389;51.578;5.456;2022-09-02T04:57:46;8.48;;;5.32;;
58621;SDS011;44389;51.578;5.456;2022-09-02T05:00:11;10.90;;;6.07;;
58621;SDS011;44389;51.578;5.456;2022-09-02T05:02:37;11.32;;;5.65;;
58621;SDS011;44389;51.578;5.456;2022-09-02T05:05:02;9.18;;;5.63;;
58621;SDS011;44389;51.578;5.456;2022-09-02T05:07:28;10.75;;;5.20;;
58621;SDS011;44389;51.578;5.456;2022-09-02T05:09:57;9.85;;;4.88;;
58621;SDS011;44389;51.578;5.456;2022-09-02T05:12:23;14.35;;;5.90;;
58621;SDS011;44389;51.578;5.456;2022-09-02T05:17:17;9.68;;;5.10;;
58621;SDS011;44389;51.578;5.456;2022-09-02T05:19:42;11.13;;;5.20;;
58621;SDS011;44389;51.578;5.456;2022-09-02T05:22:08;13.48;;;4.95;;
58621;SDS011;44389;51.578;5.456;2022-09-02T05:24:34;15.70;;;5.70;;
58621;SDS011;44389;51.578;5.456;2022-09-02T05:26:59;10.55;;;5.32;;
58621;SDS011;44389;51.578;5.456;2022-09-02T05:29:24;11.52;;;5.13;;
58621;SDS011;44389;51.578;5.456;2022-09-02T05:31:50;12.75;;;5.45;;
58621;SDS011;44389;51.578;5.456;2022-09-02T05:34:16;11.30;;;4.95;;
58621;SDS011;44389;51.578;5.456;2022-09-02T05:36:42;8.23;;;5.07;;
58621;SDS011;44389;51.578;5.456;2022-09-02T05:39:07;16.48;;;5.68;;
58621;SDS011;44389;51.578;5.456;2022-09-02T05:41:33;13.05;;;5.72;;
58621;SDS011;44389;51.578;5.456;2022-09-02T05:44:00;16.75;;;5.25;;
58621;SDS011;44389;51.578;5.456;2022-09-02T05:46:26;20.00;;;5.50;;
58621;SDS011;44389;51.578;5.456;2022-09-02T05:48:53;11.80;;;4.70;;
58621;SDS011;44389;51.578;5.456;2022-09-02T05:51:40;18.33;;;5.65;;
58621;SDS011;44389;51.578;5.456;2022-09-02T05:54:08;10.68;;;4.93;;
58621;SDS011;44389;51.578;5.456;2022-09-02T05:56:36;16.40;;;5.10;;
58621;SDS011;44389;51.578;5.456;2022-09-02T05:59:06;12.23;;;4.68;;
58621;SDS011;44389;51.578;5.456;2022-09-02T06:01:32;11.65;;;4.72;;
58621;SDS011;44389;51.578;5.456;2022-09-02T06:03:57;13.77;;;4.57;;
58621;SDS011;44389;51.578;5.456;2022-09-02T06:06:23;14.73;;;5.22;;
58621;SDS011;44389;51.578;5.456;2022-09-02T06:08:49;13.73;;;4.90;;
58621;SDS011;44389;51.578;5.456;2022-09-02T06:11:15;13.52;;;4.57;;
58621;SDS011;44389;51.578;5.456;2022-09-02T06:13:42;18.35;;;4.97;;
58621;SDS011;44389;51.578;5.456;2022-09-02T06:16:07;19.10;;;5.20;;
58621;SDS011;44389;51.578;5.456;2022-09-02T06:18:37;15.77;;;4.20;;
58621;SDS011;44389;51.578;5.456;2022-09-02T06:21:03;14.80;;;4.65;;
58621;SDS011;44389;51.578;5.456;2022-09-02T06:23:29;8.35;;;3.97;;
58621;SDS011;44389;51.578;5.456;2022-09-02T06:25:55;11.23;;;4.38;;
58621;SDS011;44389;51.578;5.456;2022-09-02T06:28:20;9.45;;;4.47;;
58621;SDS011;44389;51.578;5.456;2022-09-02T06:30:45;12.75;;;4.30;;
58621;SDS011;44389;51.578;5.456;2022-09-02T06:33:12;10.07;;;4.53;;
58621;SDS011;44389;51.578;5.456;2022-09-02T06:35:39;14.13;;;5.28;;
58621;SDS011;44389;51.578;5.456;2022-09-02T06:38:06;11.60;;;4.22;;
58621;SDS011;44389;51.578;5.456;2022-09-02T06:40:31;14.48;;;3.92;;
58621;SDS011;44389;51.578;5.456;2022-09-02T06:42:58;13.57;;;4.78;;
58621;SDS011;44389;51.578;5.456;2022-09-02T06:45:24;12.52;;;5.00;;
58621;SDS011;44389;51.578;5.456;2022-09-02T06:47:50;9.93;;;4.00;;
58621;SDS011;44389;51.578;5.456;2022-09-02T06:50:17;10.98;;;4.50;;
58621;SDS011;44389;51.578;5.456;2022-09-02T06:52:43;10.13;;;4.03;;
58621;SDS011;44389;51.578;5.456;2022-09-02T06:55:08;9.90;;;4.30;;
58621;SDS011;44389;51.578;5.456;2022-09-02T06:57:35;10.70;;;4.22;;
58621;SDS011;44389;51.578;5.456;2022-09-02T07:00:02;15.02;;;4.32;;
58621;SDS011;44389;51.578;5.456;2022-09-02T07:02:30;14.65;;;4.65;;
58621;SDS011;44389;51.578;5.456;2022-09-02T07:04:55;12.50;;;4.25;;
58621;SDS011;44389;51.578;5.456;2022-09-02T07:07:40;13.95;;;4.55;;
58621;SDS011;44389;51.578;5.456;2022-09-02T07:10:09;14.40;;;5.40;;
58621;SDS011;44389;51.578;5.456;2022-09-02T07:12:37;19.17;;;4.90;;
58621;SDS011;44389;51.578;5.456;2022-09-02T07:15:04;14.93;;;4.40;;
58621;SDS011;44389;51.578;5.456;2022-09-02T07:17:30;16.48;;;4.70;;
58621;SDS011;44389;51.578;5.456;2022-09-02T07:19:56;11.00;;;4.60;;
58621;SDS011;44389;51.578;5.456;2022-09-02T07:22:24;16.33;;;4.88;;
58621;SDS011;44389;51.578;5.456;2022-09-02T07:24:50;18.70;;;6.30;;
58621;SDS011;44389;51.578;5.456;2022-09-02T07:27:16;16.67;;;5.53;;
58621;SDS011;44389;51.578;5.456;2022-09-02T07:29:41;15.77;;;5.97;;
58621;SDS011;44389;51.578;5.456;2022-09-02T07:32:08;15.13;;;6.72;;
58621;SDS011;44389;51.578;5.456;2022-09-02T07:34:34;18.25;;;6.82;;
58621;SDS011;44389;51.578;5.456;2022-09-02T07:36:59;18.45;;;7.55;;
58621;SDS011;44389;51.578;5.456;2022-09-02T07:39:25;18.85;;;7.68;;
58621;SDS011;44389;51.578;5.456;2022-09-02T07:41:50;17.65;;;7.82;;
58621;SDS011;44389;51.578;5.456;2022-09-02T07:44:17;19.58;;;8.07;;
58621;SDS011;44389;51.578;5.456;2022-09-02T07:46:43;13.18;;;7.05;;
58621;SDS011;44389;51.578;5.456;2022-09-02T07:49:10;23.13;;;9.80;;
58621;SDS011;44389;51.578;5.456;2022-09-02T07:51:38;23.83;;;10.23;;
58621;SDS011;44389;51.578;5.456;2022-09-02T07:54:06;30.42;;;9.93;;
58621;SDS011;44389;51.578;5.456;2022-09-02T07:58:58;27.88;;;10.77;;
58621;SDS011;44389;51.578;5.456;2022-09-02T08:01:24;27.30;;;11.27;;
58621;SDS011;44389;51.578;5.456;2022-09-02T08:03:50;26.95;;;11.18;;
58621;SDS011;44389;51.578;5.456;2022-09-02T08:06:17;31.77;;;11.98;;
58621;SDS011;44389;51.578;5.456;2022-09-02T08:08:43;32.10;;;13.18;;
58621;SDS011;44389;51.578;5.456;2022-09-02T08:11:08;31.10;;;13.35;;
58621;SDS011;44389;51.578;5.456;2022-09-02T08:13:37;30.38;;;14.32;;
58621;SDS011;44389;51.578;5.456;2022-09-02T08:16:03;32.70;;;14.57;;
58621;SDS011;44389;51.578;5.456;2022-09-02T08:18:29;33.00;;;14.75;;
58621;SDS011;44389;51.578;5.456;2022-09-02T08:20:54;29.58;;;14.80;;
58621;SDS011;44389;51.578;5.456;2022-09-02T08:23:20;22.95;;;12.48;;
58621;SDS011;44389;51.578;5.456;2022-09-02T08:25:45;25.42;;;12.70;;
58621;SDS011;44389;51.578;5.456;2022-09-02T08:28:11;27.02;;;11.85;;
58621;SDS011;44389;51.578;5.456;2022-09-02T08:30:36;22.88;;;11.18;;
58621;SDS011;44389;51.578;5.456;2022-09-02T08:33:01;25.15;;;12.20;;
58621;SDS011;44389;51.578;5.456;2022-09-02T08:35:27;23.45;;;11.05;;
58621;SDS011;44389;51.578;5.456;2022-09-02T08:37:52;19.83;;;10.60;;
58621;SDS011;44389;51.578;5.456;2022-09-02T08:40:21;27.08;;;11.10;;
58621;SDS011;44389;51.578;5.456;2022-09-02T08:42:52;27.08;;;9.55;;
58621;SDS011;44389;51.578;5.456;2022-09-02T08:45:20;19.73;;;8.65;;
58621;SDS011;44389;51.578;5.456;2022-09-02T08:48:04;17.35;;;8.10;;
58621;SDS011;44389;51.578;5.456;2022-09-02T08:50:47;22.23;;;7.97;;
58621;SDS011;44389;51.578;5.456;2022-09-02T08:53:18;16.50;;;7.03;;
58621;SDS011;44389;51.578;5.456;2022-09-02T08:55:54;20.67;;;7.28;;
58621;SDS011;44389;51.578;5.456;2022-09-02T08:58:23;13.80;;;6.10;;
58621;SDS011;44389;51.578;5.456;2022-09-02T09:01:17;19.25;;;6.47;;
58621;SDS011;44389;51.578;5.456;2022-09-02T09:12:12;13.25;;;5.82;;
58621;SDS011;44389;51.578;5.456;2022-09-02T09:17:27;11.98;;;5.82;;
58621;SDS011;44389;51.578;5.456;2022-09-02T09:20:51;19.55;;;6.93;;
58621;SDS011;44389;51.578;5.456;2022-09-02T09:23:00;16.77;;;6.63;;
58621;SDS011;44389;51.578;5.456;2022-09-02T09:25:29;19.20;;;6.70;;
58621;SDS011;44389;51.578;5.456;2022-09-02T09:27:56;18.83;;;6.72;;
58621;SDS011;44389;51.578;5.456;2022-09-02T09:30:22;17.20;;;7.57;;
58621;SDS011;44389;51.578;5.456;2022-09-02T09:32:48;20.42;;;8.35;;
58621;SDS011;44389;51.578;5.456;2022-09-02T09:35:21;17.65;;;8.02;;
58621;SDS011;44389;51.578;5.456;2022-09-02T09:37:48;27.30;;;11.35;;
58621;SDS011;44389;51.578;5.456;2022-09-02T09:42:43;24.45;;;10.23;;
58621;SDS011;44389;51.578;5.456;2022-09-02T09:45:20;27.83;;;12.45;;
58621;SDS011;44389;51.578;5.456;2022-09-02T09:50:41;29.30;;;15.05;;
58621;SDS011;44389;51.578;5.456;2022-09-02T09:55:55;28.98;;;15.65;;
58621;SDS011;44389;51.578;5.456;2022-09-02T09:58:23;31.50;;;14.43;;
58621;SDS011;44389;51.578;5.456;2022-09-02T10:00:56;28.33;;;14.57;;
58621;SDS011;44389;51.578;5.456;2022-09-02T10:03:27;28.35;;;13.13;;
58621;SDS011;44389;51.578;5.456;2022-09-02T10:05:57;31.63;;;13.23;;
58621;SDS011;44389;51.578;5.456;2022-09-02T10:08:48;28.85;;;14.32;;
58621;SDS011;44389;51.578;5.456;2022-09-02T10:11:19;27.35;;;14.30;;
58621;SDS011;44389;51.578;5.456;2022-09-02T10:13:47;25.00;;;13.25;;
58621;SDS011;44389;51.578;5.456;2022-09-02T10:16:37;30.60;;;13.77;;
58621;SDS011;44389;51.578;5.456;2022-09-02T10:24:52;26.05;;;11.07;;
58621;SDS011;44389;51.578;5.456;2022-09-02T10:30:17;25.27;;;10.30;;
58621;SDS011;44389;51.578;5.456;2022-09-02T10:32:55;23.23;;;10.70;;
58621;SDS011;44389;51.578;5.456;2022-09-02T10:35:29;23.95;;;11.43;;
58621;SDS011;44389;51.578;5.456;2022-09-02T10:38:09;19.27;;;9.40;;
58621;SDS011;44389;51.578;5.456;2022-09-02T10:40:47;23.75;;;10.13;;
58621;SDS011;44389;51.578;5.456;2022-09-02T10:45:58;18.63;;;8.45;;
58621;SDS011;44389;51.578;5.456;2022-09-02T10:51:25;15.23;;;8.00;;
58621;SDS011;44389;51.578;5.456;2022-09-02T10:56:52;20.00;;;9.15;;
58621;SDS011;44389;51.578;5.456;2022-09-02T10:59:26;18.52;;;10.30;;
58621;SDS011;44389;51.578;5.456;2022-09-02T11:04:34;20.15;;;9.68;;
58621;SDS011;44389;51.578;5.456;2022-09-02T11:07:21;21.70;;;10.32;;
58621;SDS011;44389;51.578;5.456;2022-09-02T11:09:53;20.73;;;9.77;;
58621;SDS011;44389;51.578;5.456;2022-09-02T11:12:33;27.90;;;8.50;;
58621;SDS011;44389;51.578;5.456;2022-09-02T11:20:37;12.23;;;6.93;;
58621;SDS011;44389;51.578;5.456;2022-09-02T11:25:45;17.27;;;7.60;;
58621;SDS011;44389;51.578;5.456;2022-09-02T11:28:31;18.15;;;7.70;;
58621;SDS011;44389;51.578;5.456;2022-09-02T11:31:14;18.05;;;8.27;;
58621;SDS011;44389;51.578;5.456;2022-09-02T11:36:15;10.95;;;4.90;;
58621;SDS011;44389;51.578;5.456;2022-09-02T11:41:31;13.25;;;5.50;;
58621;SDS011;44389;51.578;5.456;2022-09-02T11:44:21;12.75;;;5.13;;
58621;SDS011;44389;51.578;5.456;2022-09-02T11:47:00;16.42;;;6.60;;
58621;SDS011;44389;51.578;5.456;2022-09-02T11:57:53;9.68;;;3.65;;
58621;SDS011;44389;51.578;5.456;2022-09-02T12:00:29;11.75;;;3.60;;
58621;SDS011;44389;51.578;5.456;2022-09-02T12:07:54;18.40;;;5.65;;
58621;SDS011;44389;51.578;5.456;2022-09-02T12:10:55;19.23;;;4.93;;
58621;SDS011;44389;51.578;5.456;2022-09-02T12:21:13;13.38;;;3.97;;
58621;SDS011;44389;51.578;5.456;2022-09-02T12:24:24;9.38;;;4.00;;
58621;SDS011;44389;51.578;5.456;2022-09-02T12:26:28;7.78;;;4.20;;
58621;SDS011;44389;51.578;5.456;2022-09-02T12:31:46;10.57;;;4.20;;
58621;SDS011;44389;51.578;5.456;2022-09-02T12:36:44;7.65;;;3.50;;
58621;SDS011;44389;51.578;5.456;2022-09-02T12:41:55;21.65;;;3.65;;
58621;SDS011;44389;51.578;5.456;2022-09-02T12:57:50;14.45;;;5.50;;
58621;SDS011;44389;51.578;5.456;2022-09-02T13:05:52;10.05;;;5.03;;
58621;SDS011;44389;51.578;5.456;2022-09-02T13:28:15;9.32;;;4.07;;
58621;SDS011;44389;51.578;5.456;2022-09-02T13:33:57;14.85;;;5.20;;
58621;SDS011;44389;51.578;5.456;2022-09-02T13:36:27;10.15;;;4.65;;
58621;SDS011;44389;51.578;5.456;2022-09-02T13:39:14;10.88;;;4.57;;
58621;SDS011;44389;51.578;5.456;2022-09-02T13:41:42;11.88;;;4.75;;
58621;SDS011;44389;51.578;5.456;2022-09-02T13:44:12;9.30;;;4.77;;
58621;SDS011;44389;51.578;5.456;2022-09-02T13:47:03;12.68;;;4.93;;
58621;SDS011;44389;51.578;5.456;2022-09-02T13:49:39;7.22;;;4.05;;
58621;SDS011;44389;51.578;5.456;2022-09-02T13:52:06;11.95;;;4.20;;
58621;SDS011;44389;51.578;5.456;2022-09-02T13:54:38;17.05;;;3.97;;
58621;SDS011;44389;51.578;5.456;2022-09-02T13:57:08;14.15;;;4.45;;
58621;SDS011;44389;51.578;5.456;2022-09-02T13:59:39;8.38;;;3.67;;
58621;SDS011;44389;51.578;5.456;2022-09-02T14:04:49;9.25;;;3.92;;
58621;SDS011;44389;51.578;5.456;2022-09-02T14:07:21;10.18;;;3.50;;
58621;SDS011;44389;51.578;5.456;2022-09-02T14:09:52;11.40;;;3.92;;
58621;SDS011;44389;51.578;5.456;2022-09-02T14:12:18;9.27;;;3.20;;
58621;SDS011;44389;51.578;5.456;2022-09-02T14:14:44;9.95;;;3.88;;
58621;SDS011;44389;51.578;5.456;2022-09-02T14:17:17;10.30;;;4.00;;
58621;SDS011;44389;51.578;5.456;2022-09-02T14:19:45;11.88;;;3.72;;
58621;SDS011;44389;51.578;5.456;2022-09-02T14:22:24;11.47;;;3.97;;
58621;SDS011;44389;51.578;5.456;2022-09-02T14:24:52;10.80;;;3.38;;
58621;SDS011;44389;51.578;5.456;2022-09-02T14:27:19;8.07;;;3.43;;
58621;SDS011;44389;51.578;5.456;2022-09-02T14:29:48;11.02;;;3.83;;
58621;SDS011;44389;51.578;5.456;2022-09-02T14:32:21;14.48;;;3.80;;
58621;SDS011;44389;51.578;5.456;2022-09-02T14:34:47;9.02;;;3.85;;
58621;SDS011;44389;51.578;5.456;2022-09-02T14:37:31;13.63;;;4.18;;
58621;SDS011;44389;51.578;5.456;2022-09-02T14:40:09;12.88;;;4.25;;
58621;SDS011;44389;51.578;5.456;2022-09-02T14:42:42;16.13;;;4.30;;
58621;SDS011;44389;51.578;5.456;2022-09-02T14:45:09;10.90;;;3.45;;
58621;SDS011;44389;51.578;5.456;2022-09-02T14:47:36;9.73;;;3.80;;
58621;SDS011;44389;51.578;5.456;2022-09-02T14:50:06;10.10;;;3.88;;
58621;SDS011;44389;51.578;5.456;2022-09-02T14:52:35;14.52;;;3.28;;
58621;SDS011;44389;51.578;5.456;2022-09-02T14:55:02;11.55;;;3.45;;
58621;SDS011;44389;51.578;5.456;2022-09-02T14:57:31;14.98;;;3.80;;
58621;SDS011;44389;51.578;5.456;2022-09-02T15:00:06;9.65;;;4.25;;
58621;SDS011;44389;51.578;5.456;2022-09-02T15:02:34;12.82;;;3.55;;
58621;SDS011;44389;51.578;5.456;2022-09-02T15:05:02;9.75;;;3.80;;
58621;SDS011;44389;51.578;5.456;2022-09-02T15:07:30;8.70;;;3.58;;
58621;SDS011;44389;51.578;5.456;2022-09-02T15:09:55;7.40;;;3.63;;
58621;SDS011;44389;51.578;5.456;2022-09-02T15:12:28;10.20;;;3.53;;
58621;SDS011;44389;51.578;5.456;2022-09-02T15:14:56;9.65;;;3.72;;
58621;SDS011;44389;51.578;5.456;2022-09-02T15:17:22;10.77;;;4.18;;
58621;SDS011;44389;51.578;5.456;2022-09-02T15:19:47;8.52;;;3.92;;
58621;SDS011;44389;51.578;5.456;2022-09-02T15:22:14;9.82;;;4.05;;
58621;SDS011;44389;51.578;5.456;2022-09-02T15:24:40;8.15;;;3.88;;
58621;SDS011;44389;51.578;5.456;2022-09-02T15:27:07;10.60;;;2.92;;
58621;SDS011;44389;51.578;5.456;2022-09-02T15:29:33;11.02;;;3.28;;
58621;SDS011;44389;51.578;5.456;2022-09-02T15:31:58;6.17;;;3.03;;
58621;SDS011;44389;51.578;5.456;2022-09-02T15:34:24;9.23;;;2.92;;
58621;SDS011;44389;51.578;5.456;2022-09-02T15:36:49;8.25;;;3.17;;
58621;SDS011;44389;51.578;5.456;2022-09-02T15:39:14;13.60;;;4.35;;
58621;SDS011;44389;51.578;5.456;2022-09-02T15:41:43;9.32;;;3.47;;
58621;SDS011;44389;51.578;5.456;2022-09-02T15:44:09;7.18;;;3.40;;
58621;SDS011;44389;51.578;5.456;2022-09-02T15:46:35;10.50;;;3.40;;
58621;SDS011;44389;51.578;5.456;2022-09-02T15:49:08;9.27;;;4.07;;
58621;SDS011;44389;51.578;5.456;2022-09-02T15:51:35;9.32;;;3.63;;
58621;SDS011;44389;51.578;5.456;2022-09-02T15:54:04;11.18;;;3.70;;
58621;SDS011;44389;51.578;5.456;2022-09-02T15:56:31;11.35;;;3.25;;
58621;SDS011;44389;51.578;5.456;2022-09-02T15:58:59;12.13;;;3.42;;
58621;SDS011;44389;51.578;5.456;2022-09-02T16:01:27;5.20;;;2.60;;
58621;SDS011;44389;51.578;5.456;2022-09-02T16:03:54;5.55;;;2.30;;
58621;SDS011;44389;51.578;5.456;2022-09-02T16:06:20;13.30;;;3.35;;
58621;SDS011;44389;51.578;5.456;2022-09-02T16:08:46;9.65;;;3.20;;
58621;SDS011;44389;51.578;5.456;2022-09-02T16:11:11;7.70;;;2.97;;
58621;SDS011;44389;51.578;5.456;2022-09-02T16:13:37;8.73;;;2.50;;
58621;SDS011;44389;51.578;5.456;2022-09-02T16:16:03;6.65;;;2.60;;
58621;SDS011;44389;51.578;5.456;2022-09-02T16:18:30;8.57;;;2.70;;
58621;SDS011;44389;51.578;5.456;2022-09-02T16:20:55;8.60;;;2.70;;
58621;SDS011;44389;51.578;5.456;2022-09-02T16:23:20;9.15;;;3.45;;
58621;SDS011;44389;51.578;5.456;2022-09-02T16:25:46;9.35;;;3.28;;
58621;SDS011;44389;51.578;5.456;2022-09-02T16:28:11;8.77;;;2.90;;
58621;SDS011;44389;51.578;5.456;2022-09-02T16:30:37;5.32;;;2.47;;
58621;SDS011;44389;51.578;5.456;2022-09-02T16:33:02;6.10;;;2.58;;
58621;SDS011;44389;51.578;5.456;2022-09-02T16:35:27;7.57;;;2.50;;
58621;SDS011;44389;51.578;5.456;2022-09-02T16:37:52;7.47;;;2.53;;
58621;SDS011;44389;51.578;5.456;2022-09-02T16:40:21;11.65;;;2.50;;
58621;SDS011;44389;51.578;5.456;2022-09-02T16:42:46;6.47;;;2.17;;
58621;SDS011;44389;51.578;5.456;2022-09-02T16:45:12;6.72;;;2.53;;
58621;SDS011;44389;51.578;5.456;2022-09-02T16:47:38;11.10;;;2.10;;
58621;SDS011;44389;51.578;5.456;2022-09-02T16:50:03;7.07;;;2.78;;
58621;SDS011;44389;51.578;5.456;2022-09-02T16:52:29;8.82;;;2.97;;
58621;SDS011;44389;51.578;5.456;2022-09-02T16:54:58;7.38;;;2.30;;